Aeroporto :
LOGIN :

Iscrizione | Disclaimer

   EN    FR    IT 

 










Sommario :    VFR   VFR Marginale   IFR   IFR Intensivo   IFR Molto Intensivo
Visibilità : 
Base nubi : 
>= 8 km
>= 3000ft
5 / 8 km
1000 / 3000 ft
1500m / 5 km
500 / 1000 ft
800 / 1500m
200 / 500 ft
< 800m
< 200 ft
Simboli :   Temporali  Nebbia  Neve Forte  Precipitazioni Forti  Vento > 20 kt
SIGMETs :   Varie  Temporali  Ghiacco  Turbolenza  Onda orograficha  Ceneri Vulcaniche






- Altitudine del aeroporto : 138 ft
- Codice IATA : BIO


LEBB - Bilbao

ULTIMO METAR :
  • 250000Z AUTO VRB02KT 9999 OVC019 22/19 Q1019

METARs OBSOLETI :
  • 242330Z AUTO VRB01KT 9999 BKN020 OVC034 22/19 Q1019
  • 242300Z AUTO 34003KT 320V020 9999 SCT021 OVC033 22/19 Q1020
  • 242230Z AUTO 34003KT 290V360 9999 BKN021 OVC030 22/19 Q1020
  • 242200Z AUTO VRB01KT 9999 BKN022 OVC032 22/19 Q1020
  • 242130Z 34003KT 9999 BKN022 BKN031 22/19 Q1020 NOSIG
  • 242100Z 34003KT 310V020 9999 SCT023 BKN029 22/19 Q1020 NOSIG
  • 242030Z VRB02KT 9999 SCT023 BKN029 23/19 Q1020 NOSIG
  • 242000Z 33003KT 270V010 9999 SCT022 BKN028 23/19 Q1020 NOSIG

TAF TAF LEBB
Valido dal 25 a 00 ore il 26 a 00 ore UTC


242300Z 2500/2524 03007KT 9999 SCT010 BKN020 TX24/2515Z TN19/2505Z
PROB40
TEMPO 2500/2506 BKN010
PROB30
TEMPO 2506/2512 BKN010
BECMG 2511/2513 33010KT
PROB40
TEMPO 2520/2524 VRB03KT



MetMap, La meteo Aeronautica in un colpo d'occhio ! - Copyright ORBIFLY Dicembre 2007 - Disclaimer

ORBIFLY MET'MAP TEAM :

Programmazione e sviluppo : Alexandra Zaïnal
Concezione : Baudouin d'Aumeries
Supporto tecnico e logistico : Manuel Goepfert
Aiuto : Marc-Olivier Méhu
Aiuto per la traduzione : Arnaldo La Scala




FONTI E CREDITI :

   NOAA